createdAt,value
2022-10-19T00:01:19.038Z,28.73
2022-10-19T00:06:27.811Z,25.40
2022-10-19T00:09:01.035Z,31.33
2022-10-19T00:11:28.880Z,19.00
2022-10-19T00:13:56.969Z,19.90
2022-10-19T00:16:29.319Z,24.70
2022-10-19T00:19:01.806Z,20.13
2022-10-19T00:21:28.940Z,20.80
2022-10-19T00:23:55.703Z,27.00
2022-10-19T00:26:22.463Z,21.98
2022-10-19T00:28:49.320Z,19.48
2022-10-19T00:31:18.042Z,23.77
2022-10-19T00:33:47.042Z,23.33
2022-10-19T00:36:19.961Z,25.98
2022-10-19T00:38:46.743Z,23.58
2022-10-19T00:41:13.644Z,21.35
2022-10-19T00:44:04.972Z,32.15
2022-10-19T00:46:34.070Z,27.67
2022-10-19T00:49:07.100Z,23.63
2022-10-19T00:51:39.374Z,23.08
2022-10-19T00:54:07.785Z,30.55
2022-10-19T00:56:36.088Z,27.00
2022-10-19T00:59:04.699Z,38.90
2022-10-19T01:01:32.970Z,28.02
2022-10-19T01:04:00.348Z,33.20
2022-10-19T01:06:27.593Z,32.17
2022-10-19T01:08:54.333Z,51.97
2022-10-19T01:11:23.852Z,31.92
2022-10-19T01:14:10.652Z,31.27
2022-10-19T01:16:51.927Z,32.00
2022-10-19T01:19:49.604Z,30.60
2022-10-19T01:22:28.197Z,40.90
2022-10-19T01:25:13.370Z,35.58
2022-10-19T01:28:03.279Z,27.30
2022-10-19T01:30:48.267Z,27.33
2022-10-19T01:33:23.472Z,25.15
2022-10-19T01:35:56.750Z,21.38
2022-10-19T01:38:36.189Z,28.20
2022-10-19T01:41:05.671Z,22.85
2022-10-19T01:43:58.213Z,27.73
2022-10-19T01:46:36.416Z,22.13
2022-10-19T01:49:32.100Z,23.08
2022-10-19T01:52:13.410Z,26.23
2022-10-19T01:54:44.362Z,25.80
2022-10-19T01:57:14.166Z,22.63
2022-10-19T01:59:42.328Z,24.48
2022-10-19T02:02:12.055Z,18.17
2022-10-19T02:04:39.997Z,26.00
2022-10-19T02:07:08.463Z,25.77
2022-10-19T02:09:35.528Z,24.45
2022-10-19T02:12:08.526Z,21.45
2022-10-19T02:14:39.761Z,31.08
2022-10-19T02:17:10.350Z,24.48
2022-10-19T02:19:37.221Z,21.98
2022-10-19T02:22:04.411Z,27.73
2022-10-19T02:24:31.336Z,34.65
2022-10-19T02:26:58.658Z,26.63
2022-10-19T02:29:25.260Z,25.13
2022-10-19T02:31:51.906Z,36.95
2022-10-19T02:34:18.727Z,29.10
2022-10-19T02:36:45.427Z,28.13
2022-10-19T02:39:12.109Z,24.35
2022-10-19T02:41:38.662Z,28.52
2022-10-19T02:44:18.611Z,26.55
2022-10-19T02:46:50.693Z,33.22
2022-10-19T02:49:18.248Z,35.13
2022-10-19T02:52:00.568Z,50.00
2022-10-19T02:54:28.264Z,38.15
2022-10-19T02:56:55.702Z,66.35
2022-10-19T02:59:22.913Z,102.55
2022-10-19T03:01:49.757Z,101.05
2022-10-19T03:04:16.683Z,55.65
2022-10-19T03:06:43.564Z,82.55
2022-10-19T03:09:10.519Z,75.50
2022-10-19T03:11:37.097Z,55.55
2022-10-19T03:14:03.763Z,67.05
2022-10-19T03:16:30.456Z,104.70
2022-10-19T03:18:57.038Z,87.70
2022-10-19T03:21:23.696Z,88.88
2022-10-19T03:23:50.295Z,93.97
2022-10-19T03:26:17.904Z,100.65
2022-10-19T03:28:44.678Z,95.53
2022-10-19T03:31:11.527Z,88.03
2022-10-19T03:33:38.124Z,103.45
2022-10-19T03:36:22.046Z,107.43
2022-10-19T03:38:53.363Z,97.20
2022-10-19T03:41:21.579Z,98.13
2022-10-19T03:43:48.451Z,92.07
2022-10-19T03:46:15.272Z,93.47
2022-10-19T03:48:42.282Z,97.50
2022-10-19T03:51:11.607Z,103.43
2022-10-19T03:53:38.265Z,91.78
2022-10-19T03:56:18.718Z,78.35
2022-10-19T03:58:47.194Z,74.47
2022-10-19T04:01:19.767Z,84.07
2022-10-19T04:03:46.875Z,76.78
2022-10-19T04:06:19.598Z,75.93
2022-10-19T04:08:49.981Z,71.88
2022-10-19T04:11:19.058Z,101.80
2022-10-19T04:13:51.917Z,91.23
2022-10-19T04:16:19.480Z,90.03
2022-10-19T04:18:46.739Z,89.20
2022-10-19T04:21:24.409Z,83.97
2022-10-19T04:23:52.564Z,83.03
2022-10-19T04:26:19.972Z,90.07
2022-10-19T04:28:46.979Z,104.25
2022-10-19T04:31:13.684Z,77.10
2022-10-19T04:33:41.140Z,78.85
2022-10-19T04:36:10.315Z,73.57
2022-10-19T04:38:37.983Z,76.65
2022-10-19T04:41:05.785Z,67.32
2022-10-19T04:43:32.782Z,68.88
2022-10-19T04:46:07.735Z,67.78
2022-10-19T04:48:35.660Z,65.03
2022-10-19T04:51:02.766Z,60.70
2022-10-19T04:53:29.397Z,88.70
2022-10-19T04:55:56.130Z,69.03
2022-10-19T04:58:22.794Z,64.80
2022-10-19T05:00:49.649Z,70.28
2022-10-19T05:03:16.823Z,79.20
2022-10-19T05:05:43.779Z,62.97
2022-10-19T05:08:10.951Z,67.80
2022-10-19T05:10:38.284Z,167.70
2022-10-19T05:13:05.512Z,88.90
2022-10-19T05:15:32.207Z,114.57
2022-10-19T05:17:58.983Z,96.70
2022-10-19T05:20:25.782Z,107.35
2022-10-19T05:22:52.487Z,59.33
2022-10-19T05:25:19.219Z,86.05
2022-10-19T05:27:45.904Z,76.65
2022-10-19T05:30:14.409Z,72.93
2022-10-19T05:32:41.118Z,73.82
2022-10-19T05:35:08.132Z,68.68
2022-10-19T05:37:35.144Z,56.53
2022-10-19T05:40:02.021Z,56.47
2022-10-19T05:42:28.640Z,70.40
2022-10-19T05:44:55.232Z,39.47
2022-10-19T05:47:21.841Z,45.50
2022-10-19T05:49:48.463Z,42.28
2022-10-19T05:52:17.705Z,45.53
2022-10-19T05:54:44.432Z,44.97
2022-10-19T05:57:11.067Z,40.42
2022-10-19T05:59:37.738Z,48.80
2022-10-19T06:02:04.452Z,39.88
2022-10-19T06:04:31.082Z,48.85
2022-10-19T06:06:57.668Z,32.60
2022-10-19T06:09:24.378Z,34.10
2022-10-19T06:11:50.959Z,36.67
2022-10-19T06:14:17.592Z,43.65
2022-10-19T06:16:46.058Z,29.00
2022-10-19T06:19:12.895Z,31.20
2022-10-19T06:21:41.911Z,35.55
2022-10-19T06:24:13.116Z,31.27
2022-10-19T06:26:39.842Z,30.17
2022-10-19T06:29:06.559Z,27.42
2022-10-19T06:31:35.727Z,37.47
2022-10-19T06:34:02.975Z,35.05
2022-10-19T06:36:31.563Z,32.67
2022-10-19T06:39:00.030Z,29.05
2022-10-19T06:41:26.732Z,29.58
2022-10-19T06:43:54.968Z,30.95
2022-10-19T06:46:23.842Z,32.28
2022-10-19T06:48:55.073Z,28.17
2022-10-19T06:51:22.945Z,30.35
2022-10-19T06:53:54.201Z,28.73
2022-10-19T06:56:24.701Z,31.15
2022-10-19T06:58:51.815Z,32.08
2022-10-19T07:01:18.532Z,42.33
2022-10-19T07:03:45.275Z,31.23
2022-10-19T07:06:13.295Z,28.27
2022-10-19T07:08:41.991Z,32.47
2022-10-19T07:11:11.897Z,25.58
2022-10-19T07:16:15.837Z,30.67
2022-10-19T07:18:46.732Z,25.30
2022-10-19T07:21:16.338Z,30.58
2022-10-19T07:23:45.076Z,27.40
2022-10-19T07:26:17.279Z,26.38
2022-10-19T07:28:46.452Z,27.17
2022-10-19T07:31:15.382Z,33.83
2022-10-19T07:33:42.000Z,30.43
2022-10-19T07:36:10.643Z,29.65
2022-10-19T07:38:37.648Z,27.90
2022-10-19T07:41:13.471Z,26.48
2022-10-19T07:43:41.299Z,30.60
2022-10-19T07:46:11.783Z,30.45
2022-10-19T07:48:38.513Z,23.67
2022-10-19T07:51:07.313Z,28.38
2022-10-19T07:53:35.171Z,24.55
2022-10-19T07:56:08.948Z,25.17
2022-10-19T07:58:36.607Z,26.33
2022-10-19T08:01:05.658Z,21.08
2022-10-19T08:06:20.815Z,23.52
2022-10-19T08:08:48.843Z,24.70
2022-10-19T08:11:21.148Z,26.77
2022-10-19T08:13:48.626Z,22.83
2022-10-19T08:16:40.443Z,23.88
2022-10-19T08:19:16.473Z,27.08
2022-10-19T08:21:45.874Z,28.65
2022-10-19T08:24:14.894Z,23.42
2022-10-19T08:26:42.222Z,24.67
2022-10-19T08:29:20.139Z,28.83
2022-10-19T08:31:48.865Z,29.17
2022-10-19T08:34:16.135Z,27.05
2022-10-19T08:36:42.909Z,26.88
2022-10-19T08:39:12.605Z,23.17
2022-10-19T08:42:13.153Z,26.25
2022-10-19T08:44:58.373Z,21.00
2022-10-19T08:47:55.581Z,25.25
2022-10-19T08:50:26.935Z,21.88
2022-10-19T08:53:16.625Z,28.45
2022-10-19T08:56:07.513Z,22.80
2022-10-19T08:59:00.300Z,22.23
2022-10-19T09:02:00.863Z,22.08
2022-10-19T09:04:36.142Z,29.27
2022-10-19T09:07:14.776Z,21.40
2022-10-19T09:09:51.265Z,24.17
2022-10-19T09:12:24.825Z,27.88
2022-10-19T09:15:00.421Z,27.80
2022-10-19T09:17:28.832Z,23.08
2022-10-19T09:19:55.983Z,23.38
2022-10-19T09:22:29.496Z,24.65
2022-10-19T09:25:08.699Z,17.90
2022-10-19T09:27:39.460Z,23.13
2022-10-19T09:30:28.034Z,32.00
2022-10-19T09:33:04.188Z,18.88
2022-10-19T09:35:37.298Z,21.52
2022-10-19T09:38:06.685Z,28.83
2022-10-19T09:40:35.290Z,28.10
2022-10-19T09:43:19.188Z,30.17
2022-10-19T09:46:24.481Z,22.33
2022-10-19T09:48:52.854Z,26.58
2022-10-19T09:51:21.305Z,22.38
2022-10-19T09:53:52.228Z,26.77
2022-10-19T09:56:20.097Z,27.33
2022-10-19T09:58:58.163Z,18.27
2022-10-19T10:01:43.819Z,22.85
2022-10-19T10:04:15.808Z,17.55
2022-10-19T10:06:44.924Z,41.92
2022-10-19T10:09:22.281Z,16.67
2022-10-19T10:11:50.909Z,17.65
2022-10-19T10:14:28.862Z,17.63
2022-10-19T10:16:57.470Z,17.00
2022-10-19T10:19:28.833Z,18.08
2022-10-19T10:21:57.918Z,23.75
2022-10-19T10:24:30.245Z,18.42
2022-10-19T10:27:06.169Z,23.48
2022-10-19T10:29:39.416Z,19.42
2022-10-19T10:32:18.362Z,17.67
2022-10-19T10:34:57.306Z,21.38
2022-10-19T10:37:42.662Z,20.30
2022-10-19T10:40:27.144Z,16.35
2022-10-19T10:42:56.965Z,13.48
2022-10-19T10:45:29.287Z,20.98
2022-10-19T10:47:57.987Z,15.00
2022-10-19T10:50:32.548Z,15.73
2022-10-19T10:53:26.653Z,15.40
2022-10-19T10:55:57.143Z,17.15
2022-10-19T10:58:36.061Z,12.80
2022-10-19T11:57:28.184Z,14.38
2022-10-19T12:00:15.030Z,17.15
2022-10-19T12:03:05.872Z,19.42
2022-10-19T12:05:51.104Z,16.48
2022-10-19T12:08:22.719Z,14.82
2022-10-19T12:11:07.518Z,18.38
2022-10-19T12:13:46.640Z,12.10
2022-10-19T12:16:14.847Z,16.77
2022-10-19T12:18:48.940Z,12.75
2022-10-19T12:21:27.221Z,15.30
2022-10-19T12:23:57.055Z,12.25
2022-10-19T12:26:24.881Z,13.95
2022-10-19T12:28:55.952Z,10.75
2022-10-19T12:31:25.012Z,11.35
2022-10-19T12:34:04.239Z,12.63
2022-10-19T12:36:55.003Z,15.90
2022-10-19T12:39:30.983Z,12.50
2022-10-19T12:42:30.506Z,16.73
2022-10-19T12:45:13.724Z,14.30
2022-10-19T12:47:40.955Z,7.88
2022-10-19T12:50:08.027Z,8.55
2022-10-19T12:52:36.761Z,8.32
2022-10-19T12:55:15.542Z,12.65
2022-10-19T12:58:06.548Z,13.75
2022-10-19T13:00:38.260Z,17.85
2022-10-19T13:03:14.422Z,21.17
2022-10-19T13:05:41.760Z,16.20
2022-10-19T13:08:12.107Z,13.50
2022-10-19T13:10:41.176Z,12.90
2022-10-19T13:13:46.027Z,14.00
2022-10-19T13:16:33.420Z,13.38
2022-10-19T13:19:00.142Z,16.17
2022-10-19T13:22:02.229Z,9.07
2022-10-19T13:24:37.256Z,9.00
2022-10-19T13:27:03.976Z,11.10
2022-10-19T13:29:41.305Z,8.63
2022-10-19T13:32:35.911Z,9.50
2022-10-19T13:35:23.249Z,10.73
2022-10-19T13:38:18.281Z,13.40
2022-10-19T13:40:47.877Z,11.48
2022-10-19T13:43:26.087Z,15.57
2022-10-19T13:45:58.979Z,14.40
2022-10-19T13:48:49.248Z,15.38
2022-10-19T13:51:44.848Z,13.90
2022-10-19T13:54:17.315Z,11.95
2022-10-19T13:57:16.969Z,13.43
2022-10-19T14:03:19.288Z,16.35
2022-10-19T14:06:07.560Z,9.50
2022-10-19T14:08:58.775Z,11.40
2022-10-19T14:11:31.201Z,11.75
2022-10-19T14:14:09.109Z,13.40
2022-10-19T14:16:46.335Z,13.65
2022-10-19T14:19:14.899Z,10.80
2022-10-19T14:21:41.573Z,9.57
2022-10-19T14:24:28.325Z,14.07
2022-10-19T14:26:55.825Z,11.10
2022-10-19T14:29:22.489Z,12.60
2022-10-19T14:31:49.298Z,13.50
2022-10-19T14:34:16.458Z,9.50
2022-10-19T14:36:48.397Z,9.68
2022-10-19T14:39:57.115Z,13.65
2022-10-19T14:42:23.869Z,13.23
2022-10-19T14:44:50.697Z,11.50
2022-10-19T14:47:27.324Z,14.30
2022-10-19T14:49:53.983Z,13.48
2022-10-19T14:55:04.459Z,11.15
2022-10-19T14:57:35.258Z,11.35
2022-10-19T15:00:05.995Z,11.00
2022-10-19T15:02:45.013Z,10.13
2022-10-19T15:05:23.828Z,8.93
2022-10-19T15:07:51.227Z,8.07
2022-10-19T15:10:24.543Z,13.23
2022-10-19T15:12:52.884Z,10.60
2022-10-19T15:15:24.788Z,12.93
2022-10-19T15:17:54.421Z,12.43
2022-10-19T15:20:30.063Z,8.88
2022-10-19T15:22:58.639Z,9.52
2022-10-19T15:25:43.396Z,10.85
2022-10-19T15:28:23.880Z,12.13
2022-10-19T15:31:06.604Z,17.88
2022-10-19T15:33:43.395Z,7.65
2022-10-19T15:36:19.652Z,12.55
2022-10-19T15:39:11.398Z,8.00
2022-10-19T15:41:45.884Z,8.70
2022-10-19T15:44:48.426Z,8.73
2022-10-19T15:47:15.052Z,9.40
2022-10-19T15:49:41.591Z,11.95
2022-10-19T15:52:19.761Z,12.88
2022-10-19T15:54:50.883Z,6.00
2022-10-19T15:57:38.354Z,10.35
2022-10-19T16:00:17.001Z,14.05
2022-10-19T16:02:43.783Z,11.57
2022-10-19T16:05:10.971Z,12.05
2022-10-19T16:07:40.127Z,10.35
2022-10-19T16:10:09.084Z,7.20
2022-10-19T16:12:35.673Z,9.83
2022-10-19T16:15:02.346Z,7.13
2022-10-19T16:17:28.965Z,8.07
2022-10-19T16:19:55.577Z,8.82
2022-10-19T16:22:22.219Z,6.15
2022-10-19T16:24:48.953Z,10.45
2022-10-19T16:27:16.411Z,8.38
2022-10-19T16:29:44.397Z,6.15
2022-10-19T16:32:11.219Z,14.20
2022-10-19T16:34:38.106Z,17.88
2022-10-19T16:37:06.900Z,10.02
2022-10-19T16:39:34.113Z,6.72
2022-10-19T16:42:00.706Z,7.22
2022-10-19T16:44:27.358Z,6.05
2022-10-19T16:46:56.658Z,7.95
2022-10-19T16:49:23.337Z,16.90
2022-10-19T16:51:52.047Z,8.10
2022-10-19T16:54:21.676Z,6.90
2022-10-19T16:56:48.620Z,7.75
2022-10-19T16:59:18.128Z,12.85
2022-10-19T17:01:46.263Z,8.90
2022-10-19T17:04:14.487Z,8.20
2022-10-19T17:06:41.483Z,14.23
2022-10-19T17:11:55.902Z,10.75
2022-10-19T17:14:22.528Z,8.45
2022-10-19T17:16:49.250Z,6.97
2022-10-19T17:19:15.882Z,10.32
2022-10-19T17:21:42.775Z,11.27
2022-10-19T17:24:20.091Z,9.32
2022-10-19T17:26:49.367Z,8.15
2022-10-19T17:29:16.124Z,8.43
2022-10-19T17:31:43.327Z,29.88
2022-10-19T17:34:10.378Z,30.90
2022-10-19T17:39:19.287Z,13.93
2022-10-19T17:41:47.564Z,10.20
2022-10-19T17:44:15.175Z,11.38
2022-10-19T17:46:42.033Z,12.60
2022-10-19T17:49:09.892Z,15.75
2022-10-19T17:51:37.977Z,7.97
2022-10-19T17:54:12.914Z,14.30
2022-10-19T17:56:40.647Z,11.05
2022-10-19T17:59:09.108Z,12.98
2022-10-19T18:01:37.366Z,12.20
2022-10-19T18:04:04.554Z,9.65
2022-10-19T18:06:33.597Z,14.50
2022-10-19T18:09:02.208Z,9.97
2022-10-19T18:11:31.685Z,15.48
2022-10-19T18:14:00.891Z,11.77
2022-10-19T18:16:42.284Z,10.13
2022-10-19T18:19:09.308Z,12.05
2022-10-19T18:21:39.937Z,9.75
2022-10-19T18:24:12.674Z,14.63
2022-10-19T18:26:41.735Z,10.07
2022-10-19T18:29:26.904Z,11.68
2022-10-19T18:31:53.825Z,12.93
2022-10-19T18:34:24.319Z,11.40
2022-10-19T18:36:52.030Z,14.43
2022-10-19T18:39:19.108Z,18.73
2022-10-19T18:41:46.033Z,15.02
2022-10-19T18:44:13.623Z,12.30
2022-10-19T18:46:40.748Z,14.43
2022-10-19T18:49:08.666Z,10.48
2022-10-19T18:51:35.820Z,11.13
2022-10-19T18:54:02.529Z,11.55
2022-10-19T18:56:33.466Z,15.82
2022-10-19T18:59:00.089Z,13.05
2022-10-19T19:01:28.417Z,9.40
2022-10-19T19:03:58.710Z,10.98
2022-10-19T19:06:29.440Z,10.75
2022-10-19T19:08:57.577Z,11.18
2022-10-19T19:11:26.635Z,10.55
2022-10-19T19:13:55.904Z,16.27
2022-10-19T19:16:23.699Z,13.88
2022-10-19T19:18:50.845Z,11.65
2022-10-19T19:21:21.168Z,12.82
2022-10-19T19:23:48.581Z,15.00
2022-10-19T19:26:16.737Z,12.23
2022-10-19T19:28:46.418Z,12.88
2022-10-19T19:31:17.379Z,14.85
2022-10-19T19:33:45.503Z,32.58
2022-10-19T19:36:13.939Z,14.55
2022-10-19T19:38:40.551Z,22.70
2022-10-19T19:41:09.021Z,28.05
2022-10-19T19:43:37.097Z,41.33
2022-10-19T19:46:08.974Z,29.10
2022-10-19T19:48:37.267Z,38.42
2022-10-19T19:51:04.151Z,20.88
2022-10-19T19:53:30.959Z,18.10
2022-10-19T19:55:57.596Z,17.50
2022-10-19T19:58:24.252Z,14.90
2022-10-19T20:00:50.852Z,15.90
2022-10-19T20:03:17.463Z,16.48
2022-10-19T20:05:44.070Z,14.23
2022-10-19T20:08:11.282Z,12.57
2022-10-19T20:10:39.631Z,20.02
2022-10-19T20:13:06.302Z,15.30
2022-10-19T20:15:33.302Z,14.98
2022-10-19T20:17:59.918Z,16.63
2022-10-19T20:20:26.628Z,58.65
2022-10-19T20:22:53.223Z,44.92
2022-10-19T20:25:19.915Z,21.33
2022-10-19T20:27:46.489Z,15.48
2022-10-19T20:30:13.098Z,16.45
2022-10-19T20:32:39.805Z,18.55
2022-10-19T20:35:07.508Z,23.70
2022-10-19T20:37:34.198Z,27.10
2022-10-19T20:40:03.366Z,15.45
2022-10-19T20:42:34.245Z,16.13
2022-10-19T20:45:01.012Z,18.02
2022-10-19T20:47:27.656Z,17.08
2022-10-19T20:49:54.290Z,14.93
2022-10-19T20:52:21.016Z,11.70
2022-10-19T20:54:48.478Z,14.75
2022-10-19T20:57:15.120Z,9.52
2022-10-19T20:59:43.895Z,12.25
2022-10-19T21:02:11.007Z,14.38
2022-10-19T21:04:37.677Z,11.70
2022-10-19T21:07:05.144Z,16.77
2022-10-19T21:09:32.372Z,11.02
2022-10-19T21:11:59.180Z,10.35
2022-10-19T21:14:29.069Z,11.57
2022-10-19T21:19:25.486Z,11.95
2022-10-19T21:21:57.766Z,13.48
2022-10-19T21:24:28.131Z,13.48
2022-10-19T21:26:54.742Z,11.27
2022-10-19T21:29:21.555Z,16.13
2022-10-19T21:31:50.135Z,9.55
2022-10-19T21:34:21.003Z,13.38
2022-10-19T21:36:48.008Z,10.70
2022-10-19T21:39:14.775Z,17.45
2022-10-19T21:41:41.405Z,10.77
2022-10-19T21:44:08.491Z,11.00
2022-10-19T21:46:35.237Z,11.10
2022-10-19T21:49:02.020Z,13.55
2022-10-19T21:51:42.009Z,9.55
2022-10-19T21:56:43.518Z,10.88
2022-10-19T21:59:10.195Z,9.00
2022-10-19T22:01:40.137Z,13.70
2022-10-19T22:04:12.177Z,9.38
2022-10-19T22:06:39.640Z,8.52
2022-10-19T22:09:08.466Z,11.90
2022-10-19T22:11:35.400Z,7.95
2022-10-19T22:14:03.134Z,9.68
2022-10-19T22:16:30.845Z,10.27
2022-10-19T22:18:58.052Z,11.00
2022-10-19T22:21:28.546Z,13.13
2022-10-19T22:24:01.659Z,14.18
2022-10-19T22:26:38.211Z,11.75
2022-10-19T22:29:06.951Z,15.20
2022-10-19T22:31:35.441Z,17.67
2022-10-19T22:34:05.221Z,12.13
2022-10-19T22:36:31.954Z,15.35
2022-10-19T22:38:58.531Z,11.77
2022-10-19T22:41:25.136Z,11.52
2022-10-19T22:43:51.822Z,12.57
2022-10-19T22:46:18.404Z,15.02
2022-10-19T22:48:45.036Z,11.68
2022-10-19T22:51:11.766Z,12.00
2022-10-19T22:53:38.374Z,11.60
2022-10-19T22:56:05.659Z,14.00
2022-10-19T22:58:32.367Z,11.95
2022-10-19T23:01:17.289Z,11.88
2022-10-19T23:03:44.205Z,11.77
2022-10-19T23:06:13.934Z,11.82
2022-10-19T23:08:41.002Z,10.93
2022-10-19T23:11:07.670Z,9.95
2022-10-19T23:13:34.310Z,10.57
2022-10-19T23:16:01.152Z,11.13
2022-10-19T23:18:31.759Z,14.65
2022-10-19T23:21:01.026Z,12.02
2022-10-19T23:23:28.756Z,9.68
2022-10-19T23:26:06.423Z,22.35
2022-10-19T23:28:34.828Z,11.32
2022-10-19T23:31:10.782Z,19.60
2022-10-19T23:33:37.517Z,11.85
2022-10-19T23:36:08.361Z,12.43
2022-10-19T23:38:36.870Z,16.27
2022-10-19T23:41:03.944Z,15.20
2022-10-19T23:43:30.646Z,11.98
2022-10-19T23:45:57.317Z,17.35
2022-10-19T23:48:24.215Z,15.60
2022-10-19T23:51:17.257Z,13.85
2022-10-19T23:53:45.540Z,13.25
2022-10-19T23:56:13.718Z,13.05
2022-10-19T23:58:40.872Z,11.23
